createdAt,value
2019-02-04T00:00:00.862Z,27.80
2019-02-04T00:02:30.925Z,27.50
2019-02-04T00:04:58.743Z,27.70
2019-02-04T00:07:27.225Z,27.20
2019-02-04T00:09:56.419Z,27.40
2019-02-04T00:12:26.118Z,27.20
2019-02-04T00:14:54.098Z,27.40
2019-02-04T00:17:22.050Z,27.70
2019-02-04T00:19:50.151Z,27.70
2019-02-04T00:22:19.340Z,27.20
2019-02-04T00:24:47.411Z,27.50
2019-02-04T00:27:15.369Z,27.60
2019-02-04T00:29:43.453Z,27.20
2019-02-04T00:32:11.716Z,27.30
2019-02-04T00:34:39.701Z,27.20
2019-02-04T00:37:08.056Z,27.60
2019-02-04T00:39:36.049Z,27.70
2019-02-04T00:42:04.015Z,27.80
2019-02-04T00:44:32.273Z,27.90
2019-02-04T00:47:00.572Z,28.10
2019-02-04T00:49:28.539Z,27.70
2019-02-04T00:51:56.805Z,28.30
2019-02-04T00:54:24.887Z,27.90
2019-02-04T00:56:54.575Z,27.70
2019-02-04T00:59:22.774Z,28.20
2019-02-04T01:01:50.744Z,27.20
2019-02-04T01:04:18.709Z,27.40
2019-02-04T01:06:46.889Z,27.40
2019-02-04T01:09:15.160Z,27.60
2019-02-04T01:11:43.152Z,27.20
2019-02-04T01:14:11.202Z,26.70
2019-02-04T01:16:39.274Z,26.80
2019-02-04T01:19:07.243Z,26.80
2019-02-04T01:21:35.425Z,26.60
2019-02-04T01:24:03.697Z,26.60
2019-02-04T01:26:31.861Z,26.30
2019-02-04T01:28:59.838Z,26.40
2019-02-04T01:31:28.114Z,26.40
2019-02-04T01:33:56.083Z,26.30
2019-02-04T01:36:24.157Z,26.30
2019-02-04T01:38:52.636Z,26.10
2019-02-04T01:41:20.610Z,26.30
2019-02-04T01:43:48.654Z,26.20
2019-02-04T01:46:16.931Z,26.20
2019-02-04T01:48:46.010Z,26.30
2019-02-04T01:51:14.026Z,25.90
2019-02-04T01:53:41.988Z,25.80
2019-02-04T01:56:10.168Z,26.10
2019-02-04T01:58:38.137Z,26.00
2019-02-04T02:01:06.203Z,26.10
2019-02-04T02:03:34.299Z,26.40
2019-02-04T02:06:02.540Z,26.30
2019-02-04T02:08:30.501Z,25.90
2019-02-04T02:10:58.904Z,25.90
2019-02-04T02:13:27.081Z,26.00
2019-02-04T02:15:55.046Z,25.90
2019-02-04T02:18:23.014Z,26.00
2019-02-04T02:20:51.192Z,26.20
2019-02-04T02:23:19.243Z,26.70
2019-02-04T02:25:47.845Z,26.30
2019-02-04T02:28:16.006Z,26.50
2019-02-04T02:30:44.194Z,27.10
2019-02-04T02:33:12.166Z,26.30
2019-02-04T02:35:40.338Z,26.60
2019-02-04T02:38:08.717Z,26.40
2019-02-04T02:40:36.688Z,26.80
2019-02-04T02:43:06.688Z,26.90
2019-02-04T02:45:34.365Z,26.40
2019-02-04T02:48:02.517Z,26.50
2019-02-04T02:50:30.612Z,26.10
2019-02-04T02:52:58.996Z,26.00
2019-02-04T02:55:27.168Z,26.20
2019-02-04T02:57:55.772Z,26.70
2019-02-04T03:00:24.002Z,26.40
2019-02-04T03:02:54.149Z,26.20
2019-02-04T03:05:21.709Z,25.80
2019-02-04T03:07:49.780Z,25.80
2019-02-04T03:10:17.865Z,26.10
2019-02-04T03:12:46.333Z,25.90
2019-02-04T03:15:14.643Z,25.80
2019-02-04T03:17:51.407Z,26.00
2019-02-04T03:20:12.362Z,25.70
2019-02-04T03:22:40.460Z,25.70
2019-02-04T03:25:09.989Z,26.20
2019-02-04T03:27:38.139Z,25.90
2019-02-04T03:30:06.429Z,25.90
2019-02-04T03:32:34.388Z,26.20
2019-02-04T03:35:02.670Z,26.70
2019-02-04T03:37:30.634Z,26.50
2019-02-04T03:39:58.603Z,26.50
2019-02-04T03:42:26.852Z,26.90
2019-02-04T03:44:57.078Z,26.50
2019-02-04T03:47:26.323Z,26.80
2019-02-04T03:49:54.379Z,26.80
2019-02-04T03:52:23.572Z,27.10
2019-02-04T03:54:51.538Z,27.60
2019-02-04T03:57:19.508Z,27.60
2019-02-04T03:59:47.580Z,28.20
2019-02-04T04:02:15.653Z,27.80
2019-02-04T04:04:43.623Z,27.70
2019-02-04T04:07:11.572Z,27.60
2019-02-04T04:09:39.562Z,27.70
2019-02-04T04:12:07.631Z,27.70
2019-02-04T04:14:36.111Z,27.00
2019-02-04T04:17:04.084Z,28.20
2019-02-04T04:19:32.025Z,27.10
2019-02-04T04:22:00.095Z,26.70
2019-02-04T04:24:29.280Z,26.40
2019-02-04T04:26:57.395Z,27.00
2019-02-04T04:29:25.570Z,26.60
2019-02-04T04:31:53.540Z,26.50
2019-02-04T04:34:21.486Z,26.40
2019-02-04T04:36:49.445Z,27.00
2019-02-04T04:39:17.417Z,26.70
2019-02-04T04:41:45.397Z,26.70
2019-02-04T04:44:13.494Z,26.90
2019-02-04T04:46:41.850Z,27.00
2019-02-04T04:49:09.834Z,27.10
2019-02-04T04:51:39.606Z,27.70
2019-02-04T04:54:07.621Z,27.40
2019-02-04T04:56:36.635Z,27.30
2019-02-04T04:59:04.790Z,27.10
2019-02-04T05:01:33.368Z,27.00
2019-02-04T05:04:01.440Z,26.70
2019-02-04T05:06:29.587Z,27.10
2019-02-04T05:08:57.694Z,26.60
2019-02-04T05:11:25.758Z,27.20
2019-02-04T05:13:53.728Z,27.20
2019-02-04T05:16:21.698Z,27.60
2019-02-04T05:18:49.876Z,27.50
2019-02-04T05:21:17.840Z,27.40
2019-02-04T05:23:45.786Z,27.10
2019-02-04T05:26:14.910Z,27.30
2019-02-04T05:28:43.260Z,26.80
2019-02-04T05:31:11.258Z,27.30
2019-02-04T05:33:39.230Z,26.80
2019-02-04T05:36:07.301Z,27.30
2019-02-04T05:38:35.341Z,26.50
2019-02-04T05:41:03.413Z,26.40
2019-02-04T05:43:31.415Z,26.90
2019-02-04T05:45:59.385Z,26.40
2019-02-04T05:48:27.350Z,26.50
2019-02-04T05:50:55.291Z,25.30
2019-02-04T05:53:23.258Z,25.20
2019-02-04T05:55:51.255Z,24.90
2019-02-04T05:58:19.202Z,24.30
2019-02-04T06:00:50.310Z,24.90
2019-02-04T06:03:18.312Z,25.60
2019-02-04T06:05:46.590Z,26.90
2019-02-04T06:08:14.554Z,28.80
2019-02-04T06:10:42.557Z,30.30
2019-02-04T06:13:10.600Z,32.10
2019-02-04T06:15:38.596Z,35.90
2019-02-04T06:18:06.781Z,39.00
2019-02-04T06:20:35.047Z,39.60
2019-02-04T06:23:03.223Z,39.50
2019-02-04T06:25:31.190Z,39.40
2019-02-04T06:27:59.266Z,41.20
2019-02-04T06:30:27.211Z,42.10
2019-02-04T06:32:56.476Z,43.10
2019-02-04T06:35:24.608Z,39.70
2019-02-04T06:37:52.493Z,37.70
2019-02-04T06:40:20.550Z,38.40
2019-02-04T06:42:48.518Z,39.80
2019-02-04T06:45:16.585Z,40.60
2019-02-04T06:47:44.757Z,42.10
2019-02-04T06:50:12.728Z,42.80
2019-02-04T06:52:41.081Z,43.60
2019-02-04T06:55:10.667Z,44.50
2019-02-04T06:57:40.383Z,46.00
2019-02-04T07:00:08.598Z,45.70
2019-02-04T07:02:36.577Z,46.90
2019-02-04T07:05:04.742Z,46.90
2019-02-04T07:07:33.125Z,46.80
2019-02-04T07:10:01.092Z,47.10
2019-02-04T07:12:30.622Z,47.30
2019-02-04T07:14:58.670Z,46.60
2019-02-04T07:17:26.844Z,45.70
2019-02-04T07:19:54.815Z,45.40
2019-02-04T07:22:23.877Z,44.20
2019-02-04T07:24:52.606Z,43.40
2019-02-04T07:27:22.448Z,40.80
2019-02-04T07:29:50.356Z,41.20
2019-02-04T07:32:18.347Z,40.90
2019-02-04T07:34:46.316Z,39.00
2019-02-04T07:37:15.505Z,35.70
2019-02-04T07:39:43.898Z,34.50
2019-02-04T07:42:11.938Z,30.50
2019-02-04T07:44:40.904Z,27.90
2019-02-04T07:47:09.131Z,27.60
2019-02-04T07:49:37.176Z,27.40
2019-02-04T07:52:05.275Z,26.80
2019-02-04T07:54:33.734Z,25.80
2019-02-04T07:57:02.033Z,25.20
2019-02-04T07:59:30.001Z,24.80
2019-02-04T08:01:57.973Z,24.60
2019-02-04T08:04:26.044Z,24.20
2019-02-04T08:06:54.219Z,24.40
2019-02-04T08:09:22.191Z,24.10
2019-02-04T08:11:50.754Z,24.10
2019-02-04T08:14:18.745Z,25.20
2019-02-04T08:16:46.927Z,25.30
2019-02-04T08:19:14.885Z,25.80
2019-02-04T08:21:43.137Z,25.70
2019-02-04T08:24:11.518Z,25.80
2019-02-04T08:26:39.613Z,26.00
2019-02-04T08:29:07.582Z,25.50
2019-02-04T08:31:35.550Z,25.90
2019-02-04T08:34:03.725Z,25.70
2019-02-04T08:36:43.457Z,25.40
2019-02-04T08:39:04.991Z,25.00
2019-02-04T08:41:33.037Z,24.40
2019-02-04T08:44:03.159Z,24.90
2019-02-04T08:46:31.152Z,24.90
2019-02-04T08:48:59.329Z,24.60
2019-02-04T08:51:27.397Z,24.20
2019-02-04T08:53:55.369Z,24.10
2019-02-04T08:56:23.338Z,23.70
2019-02-04T08:58:51.305Z,23.80
2019-02-04T09:01:19.688Z,23.40
2019-02-04T09:03:47.652Z,23.40
2019-02-04T09:06:15.703Z,22.50
2019-02-04T09:08:43.694Z,22.10
2019-02-04T09:11:13.364Z,23.30
2019-02-04T09:13:41.477Z,24.90
2019-02-04T09:16:09.552Z,25.20
2019-02-04T09:18:44.918Z,24.80
2019-02-04T09:21:08.832Z,24.70
2019-02-04T09:23:38.582Z,23.60
2019-02-04T09:26:06.626Z,22.40
2019-02-04T09:28:34.619Z,22.20
2019-02-04T09:31:04.196Z,21.60
2019-02-04T09:33:32.177Z,22.00
2019-02-04T09:36:00.137Z,23.10
2019-02-04T09:38:28.235Z,23.40
2019-02-04T09:40:56.206Z,24.00
2019-02-04T09:43:24.383Z,24.00
2019-02-04T09:45:52.535Z,24.20
2019-02-04T09:48:20.727Z,22.60
2019-02-04T09:50:49.081Z,21.80
2019-02-04T09:53:17.557Z,21.40
2019-02-04T09:55:45.539Z,20.80
2019-02-04T09:58:13.732Z,21.80
2019-02-04T10:00:41.808Z,21.50
2019-02-04T10:03:09.757Z,20.60
2019-02-04T10:05:37.658Z,20.50
2019-02-04T10:08:07.648Z,20.50
2019-02-04T10:10:35.736Z,19.80
2019-02-04T10:13:04.009Z,18.70
2019-02-04T10:15:34.001Z,20.50
2019-02-04T10:18:01.995Z,21.60
2019-02-04T10:20:34.212Z,22.90
2019-02-04T10:22:59.566Z,23.10
2019-02-04T10:25:27.401Z,22.40
2019-02-04T10:27:55.277Z,22.90
2019-02-04T10:30:23.322Z,22.80
2019-02-04T10:32:51.826Z,23.40
2019-02-04T10:35:20.055Z,24.20
2019-02-04T10:37:48.660Z,24.30
2019-02-04T10:40:16.692Z,24.50
2019-02-04T10:42:44.633Z,25.00
2019-02-04T10:45:12.626Z,25.10
2019-02-04T10:47:40.582Z,24.70
2019-02-04T10:50:08.604Z,24.00
2019-02-04T10:52:36.549Z,23.20
2019-02-04T10:55:04.837Z,23.00
2019-02-04T10:57:40.314Z,23.20
2019-02-04T11:00:04.377Z,23.60
2019-02-04T11:02:32.426Z,23.90
2019-02-04T11:05:00.586Z,24.00
2019-02-04T11:07:30.493Z,24.10
2019-02-04T11:09:58.469Z,24.00
2019-02-04T11:12:27.490Z,24.60
2019-02-04T11:14:55.532Z,25.60
2019-02-04T11:17:23.726Z,26.60
2019-02-04T11:19:51.696Z,27.70
2019-02-04T11:22:19.957Z,27.60
2019-02-04T11:24:48.431Z,28.60
2019-02-04T11:27:17.597Z,29.90
2019-02-04T11:29:45.830Z,29.70
2019-02-04T11:32:13.755Z,31.30
2019-02-04T11:34:41.952Z,31.50
2019-02-04T11:37:12.176Z,31.80
2019-02-04T11:39:39.832Z,33.20
2019-02-04T11:42:08.361Z,33.30
2019-02-04T11:44:36.392Z,33.80
2019-02-04T11:47:04.385Z,34.10
2019-02-04T11:49:32.326Z,34.20
2019-02-04T11:52:00.276Z,35.00
2019-02-04T11:54:28.237Z,34.70
2019-02-04T11:56:56.724Z,33.20
2019-02-04T11:59:25.869Z,34.00
2019-02-04T12:01:53.911Z,34.50
2019-02-04T12:04:22.838Z,35.50
2019-02-04T12:06:51.286Z,35.20
2019-02-04T12:09:19.224Z,35.30
2019-02-04T12:11:48.870Z,35.70
2019-02-04T12:14:17.323Z,35.00
2019-02-04T12:16:45.418Z,35.40
2019-02-04T12:19:13.385Z,35.40
2019-02-04T12:21:41.431Z,36.50
2019-02-04T12:24:09.427Z,36.10
2019-02-04T12:26:37.485Z,38.10
2019-02-04T12:29:05.653Z,37.70
2019-02-04T12:31:33.848Z,36.90
2019-02-04T12:34:01.799Z,36.30
2019-02-04T12:36:29.786Z,37.60
2019-02-04T12:41:56.728Z,37.90
2019-02-04T12:44:24.701Z,39.50
2019-02-04T12:46:52.896Z,38.10
2019-02-04T12:49:20.864Z,39.20
2019-02-04T12:51:48.833Z,39.30
2019-02-04T12:54:17.309Z,38.20
2019-02-04T12:56:46.493Z,39.00
2019-02-04T12:59:14.586Z,38.50
2019-02-04T13:01:42.557Z,39.70
2019-02-04T13:04:10.729Z,39.70
2019-02-04T13:06:38.717Z,39.20
2019-02-04T13:09:07.504Z,40.00
2019-02-04T13:11:35.765Z,40.20
2019-02-04T13:14:04.124Z,39.70
2019-02-04T13:16:32.192Z,38.40
2019-02-04T13:19:00.391Z,37.50
2019-02-04T13:21:28.462Z,38.40
2019-02-04T13:23:56.642Z,38.60
2019-02-04T13:26:27.354Z,39.70
2019-02-04T13:28:55.830Z,38.10
2019-02-04T13:31:23.792Z,39.10
2019-02-04T13:33:51.996Z,38.40
2019-02-04T13:36:19.967Z,39.30
2019-02-04T13:38:47.934Z,40.30
2019-02-04T13:41:16.107Z,40.00
2019-02-04T13:43:44.180Z,40.00
2019-02-04T13:46:12.263Z,40.70
2019-02-04T13:48:40.411Z,40.80
2019-02-04T13:51:08.295Z,40.80
2019-02-04T13:53:36.262Z,40.50
2019-02-04T13:56:04.308Z,40.90
2019-02-04T13:58:32.478Z,41.00
2019-02-04T14:01:00.580Z,40.30
2019-02-04T14:03:28.651Z,40.80
2019-02-04T14:05:56.619Z,39.70
2019-02-04T14:08:24.593Z,40.30
2019-02-04T14:10:52.664Z,40.20
2019-02-04T14:13:22.648Z,40.50
2019-02-04T14:15:50.650Z,39.60
2019-02-04T14:18:18.721Z,38.50
2019-02-04T14:20:46.695Z,36.90
2019-02-04T14:23:14.645Z,37.60
2019-02-04T14:25:42.812Z,37.70
2019-02-04T14:28:10.904Z,38.50
2019-02-04T14:30:38.980Z,37.00
2019-02-04T14:33:06.946Z,35.70
2019-02-04T14:35:35.065Z,33.90
2019-02-04T14:38:03.197Z,35.00
2019-02-04T14:40:31.349Z,33.60
2019-02-04T14:42:59.830Z,31.40
2019-02-04T14:45:27.903Z,30.80
2019-02-04T14:48:03.179Z,30.30
2019-02-04T14:50:27.443Z,30.00
2019-02-04T14:52:55.413Z,29.80
2019-02-04T14:55:23.364Z,29.70
2019-02-04T14:57:51.456Z,29.10
2019-02-04T15:00:19.627Z,29.10
2019-02-04T15:02:49.325Z,29.40
2019-02-04T15:05:17.206Z,29.20
2019-02-04T15:07:45.176Z,30.10
2019-02-04T15:10:13.225Z,30.80
2019-02-04T15:12:42.209Z,30.90
2019-02-04T15:15:12.178Z,29.80
2019-02-04T15:17:40.126Z,29.40
2019-02-04T15:20:08.170Z,29.40
2019-02-04T15:22:37.883Z,28.80
2019-02-04T15:25:05.678Z,28.60
2019-02-04T15:27:33.921Z,29.00
2019-02-04T15:30:02.182Z,28.50
2019-02-04T15:32:30.332Z,28.60
2019-02-04T15:35:04.802Z,29.30
2019-02-04T15:37:28.101Z,30.20
2019-02-04T15:39:56.250Z,32.30
2019-02-04T15:42:31.983Z,33.70
2019-02-04T15:44:53.900Z,36.10
2019-02-04T15:47:21.869Z,37.90
2019-02-04T15:49:50.986Z,39.70
2019-02-04T15:52:19.171Z,40.90
2019-02-04T15:54:47.243Z,42.10
2019-02-04T15:57:15.732Z,43.10
2019-02-04T15:59:44.823Z,43.70
2019-02-04T16:02:12.997Z,44.70
2019-02-04T16:04:43.193Z,44.70
2019-02-04T16:07:12.547Z,45.40
2019-02-04T16:09:40.796Z,46.40
2019-02-04T16:12:09.280Z,47.00
2019-02-04T16:14:37.730Z,47.30
2019-02-04T16:17:05.929Z,46.00
2019-02-04T16:19:33.876Z,46.90
2019-02-04T16:22:02.074Z,46.60
2019-02-04T16:24:30.017Z,46.80
2019-02-04T16:26:58.101Z,47.30
2019-02-04T16:29:26.703Z,48.10
2019-02-04T16:31:55.181Z,47.80
2019-02-04T16:34:24.779Z,48.10
2019-02-04T16:36:52.757Z,47.90
2019-02-04T16:39:22.531Z,48.20
2019-02-04T16:41:50.418Z,48.80
2019-02-04T16:44:18.508Z,49.70
2019-02-04T16:46:46.690Z,49.90
2019-02-04T16:49:15.572Z,50.20
2019-02-04T16:51:44.490Z,51.20
2019-02-04T16:54:12.525Z,51.60
2019-02-04T16:56:40.508Z,52.40
2019-02-04T16:59:08.477Z,52.60
2019-02-04T17:01:37.034Z,53.00
2019-02-04T17:04:06.143Z,53.60
2019-02-04T17:06:34.125Z,53.20
2019-02-04T17:09:03.821Z,53.30
2019-02-04T17:11:32.707Z,53.40
2019-02-04T17:14:02.753Z,53.50
2019-02-04T17:16:30.814Z,54.00
2019-02-04T17:18:58.754Z,55.00
2019-02-04T17:21:26.754Z,55.20
2019-02-04T17:23:54.824Z,55.00
2019-02-04T17:26:22.795Z,55.50
2019-02-04T17:28:50.762Z,54.90
2019-02-04T17:31:18.921Z,54.90
2019-02-04T17:33:47.315Z,55.70
2019-02-04T17:36:15.285Z,55.70
2019-02-04T17:38:43.153Z,55.90
2019-02-04T17:41:11.124Z,55.40
2019-02-04T17:43:39.067Z,54.80
2019-02-04T17:46:07.165Z,55.40
2019-02-04T17:48:35.236Z,55.00
2019-02-04T17:51:03.205Z,54.90
2019-02-04T17:53:34.253Z,55.40
2019-02-04T17:56:01.194Z,55.20
2019-02-04T17:58:29.161Z,55.70
2019-02-04T18:00:57.235Z,55.70
2019-02-04T18:03:26.696Z,55.80
2019-02-04T18:05:55.819Z,55.70
2019-02-04T18:08:23.887Z,55.40
2019-02-04T18:10:51.845Z,55.30
2019-02-04T18:13:20.069Z,54.30
2019-02-04T18:15:48.124Z,53.90
2019-02-04T18:18:16.173Z,54.10
2019-02-04T18:20:44.270Z,54.70
2019-02-04T18:23:12.338Z,53.80
2019-02-04T18:25:40.490Z,54.80
2019-02-04T18:28:09.356Z,53.80
2019-02-04T18:30:37.679Z,53.10
2019-02-04T18:33:05.653Z,52.90
2019-02-04T18:35:34.028Z,52.60
2019-02-04T18:38:01.998Z,52.30
2019-02-04T18:40:29.884Z,52.20
2019-02-04T18:42:58.361Z,51.20
2019-02-04T18:45:26.418Z,50.60
2019-02-04T18:47:54.387Z,51.90
2019-02-04T18:50:22.993Z,52.30
2019-02-04T18:52:51.554Z,52.10
2019-02-04T18:55:21.981Z,52.20
2019-02-04T18:57:52.903Z,52.50
2019-02-04T19:00:21.904Z,52.30
2019-02-04T19:02:50.197Z,52.10
2019-02-04T19:05:20.092Z,51.50
2019-02-04T19:07:48.267Z,51.70
2019-02-04T19:10:16.249Z,52.00
2019-02-04T19:12:45.215Z,52.50
2019-02-04T19:15:13.423Z,53.00
2019-02-04T19:17:41.362Z,54.10
2019-02-04T19:20:09.435Z,54.30
2019-02-04T19:22:37.640Z,54.20
2019-02-04T19:25:05.778Z,54.50
2019-02-04T19:27:33.778Z,55.20
2019-02-04T19:30:02.468Z,55.30
2019-02-04T19:32:30.431Z,55.30
2019-02-04T19:34:58.605Z,55.10
2019-02-04T19:37:26.578Z,55.00
2019-02-04T19:39:54.853Z,55.50
2019-02-04T19:42:22.841Z,55.50
2019-02-04T19:44:50.894Z,55.80
2019-02-04T19:47:18.968Z,55.90
2019-02-04T19:49:46.909Z,56.60
2019-02-04T19:52:15.009Z,57.30
2019-02-04T19:54:43.568Z,57.30
2019-02-04T19:57:11.560Z,58.60
2019-02-04T19:59:39.732Z,58.50
2019-02-04T20:02:07.909Z,58.20
2019-02-04T20:04:36.772Z,57.50
2019-02-04T20:07:05.383Z,57.80
2019-02-04T20:09:33.434Z,58.00
2019-02-04T20:12:03.110Z,58.00
2019-02-04T20:14:31.319Z,58.10
2019-02-04T20:16:59.311Z,58.40
2019-02-04T20:19:27.278Z,58.50
2019-02-04T20:21:57.012Z,59.20
2019-02-04T20:24:32.837Z,59.00
2019-02-04T20:26:54.977Z,58.90
2019-02-04T20:29:22.946Z,59.10
2019-02-04T20:31:51.018Z,59.40
2019-02-04T20:34:20.788Z,59.80
2019-02-04T20:36:48.880Z,59.70
2019-02-04T20:39:17.177Z,59.40
2019-02-04T20:41:45.250Z,59.50
2019-02-04T20:44:13.604Z,59.40
2019-02-04T20:46:41.596Z,59.40
2019-02-04T20:49:09.567Z,59.40
2019-02-04T20:51:38.607Z,59.30
2019-02-04T20:54:06.632Z,59.20
2019-02-04T20:56:37.510Z,59.20
2019-02-04T20:59:05.543Z,59.20
2019-02-04T21:01:33.830Z,59.00
2019-02-04T21:04:02.094Z,58.80
2019-02-04T21:06:30.275Z,58.80
2019-02-04T21:08:58.446Z,58.80
2019-02-04T21:11:26.409Z,58.70
2019-02-04T21:13:55.004Z,58.60
2019-02-04T21:16:23.272Z,58.50
2019-02-04T21:18:51.210Z,58.40
2019-02-04T21:21:20.134Z,58.30
2019-02-04T21:23:48.498Z,58.20
2019-02-04T21:26:17.066Z,58.10
2019-02-04T21:28:46.410Z,58.60
2019-02-04T21:31:14.673Z,58.10
2019-02-04T21:33:42.744Z,57.90
2019-02-04T21:36:10.714Z,57.90
2019-02-04T21:38:39.603Z,58.00
2019-02-04T21:41:08.597Z,58.00
2019-02-04T21:43:36.982Z,58.10
2019-02-04T21:46:05.844Z,58.20
2019-02-04T21:48:34.429Z,58.20
2019-02-04T21:51:02.736Z,58.20
2019-02-04T21:53:31.077Z,58.20
2019-02-04T21:55:59.380Z,58.20
2019-02-04T21:58:27.534Z,58.20
2019-02-04T22:00:56.635Z,58.00
2019-02-04T22:03:25.627Z,58.00
2019-02-04T22:05:53.594Z,58.00
2019-02-04T22:08:22.067Z,58.00
2019-02-04T22:10:50.448Z,58.00
2019-02-04T22:13:18.857Z,58.30
2019-02-04T22:15:47.409Z,58.30
2019-02-04T22:18:15.526Z,58.60
2019-02-04T22:20:44.141Z,58.80
2019-02-04T22:23:12.681Z,58.90
2019-02-04T22:25:50.041Z,59.20
2019-02-04T22:28:18.144Z,59.10
2019-02-04T22:30:47.032Z,59.30
2019-02-04T22:33:15.287Z,59.40
2019-02-04T22:35:43.674Z,59.50
2019-02-04T22:38:11.937Z,59.60
2019-02-04T22:40:39.907Z,59.90
2019-02-04T22:43:08.021Z,59.80
2019-02-04T22:45:36.073Z,59.90
2019-02-04T22:48:04.044Z,59.60
2019-02-04T22:50:32.216Z,60.20
2019-02-04T22:53:02.363Z,60.50
2019-02-04T22:55:32.286Z,60.60
2019-02-04T22:57:59.917Z,60.70
2019-02-04T23:00:30.319Z,61.10
2019-02-04T23:02:58.415Z,61.20
2019-02-04T23:05:26.487Z,61.50
2019-02-04T23:07:54.761Z,61.60
2019-02-04T23:10:22.911Z,62.10
2019-02-04T23:12:51.214Z,62.10
2019-02-04T23:15:21.228Z,63.30
2019-02-04T23:20:30.858Z,62.80
2019-02-04T23:22:58.961Z,63.00
2019-02-04T23:25:26.906Z,63.10
2019-02-04T23:27:56.111Z,63.30
2019-02-04T23:30:24.274Z,63.30
2019-02-04T23:32:52.280Z,63.40
2019-02-04T23:35:23.716Z,63.30
2019-02-04T23:37:52.192Z,63.40
2019-02-04T23:40:20.279Z,63.40
2019-02-04T23:42:48.225Z,63.60
2019-02-04T23:45:16.223Z,63.60
2019-02-04T23:47:46.117Z,63.50
2019-02-04T23:50:13.793Z,63.70
2019-02-04T23:52:41.840Z,63.90
2019-02-04T23:55:09.835Z,64.10
2019-02-04T23:57:37.778Z,64.10
